ADDS METAR Data INFO
IDs: Format: Raw Decoded Include TAF

Data at: 0936 UTC 11 Dec 2017

KAIA 110853Z AUTO 28013KT 10SM CLR 02/M11 A3021 RMK AO2 SLP226 T00221111 56004
KAIA 110753Z AUTO 28012KT 10SM CLR 00/M11 A3021 RMK AO2 SLP230 T00001111
KAIA 110653Z AUTO 29012KT 10SM CLR M01/M11 A3022 RMK AO2 SLP232 T10061111 401611044
KAIA 110553Z AUTO 27010KT 10SM CLR M03/M12 A3023 RMK AO2 SLP239 T10281117 10028 21039 53000
KAIA 110453Z AUTO 28011KT 10SM CLR 03/M11 A3022 RMK AO2 SLP236 T00281106
KAIA 110353Z AUTO 27011KT 10SM CLR M03/M12 A3021 RMK AO2 SLP251 T10331122
KAIA 110253Z AUTO 28012KT 10SM CLR M01/M12 A3023 RMK AO2 SLP259 T10061122 50001
KAIA 110153Z AUTO 28011KT 10SM CLR 00/M14 A3023 RMK AO2 SLP263 T00001139
KAIA 110053Z AUTO 28009KT 10SM CLR M01/M14 A3022 RMK AO2 SLP265 T10111144
KAIA 102353Z AUTO 28010KT 10SM CLR 03/M15 A3022 RMK AO2 SLP255 T00331150 10161 20028 56004
KAIA 102253Z AUTO 29015G20KT 10SM CLR 12/M14 A3022 RMK AO2 SLP239 T01171144
KAIA 102153Z AUTO 30018G22KT 10SM CLR 14/M16 A3022 RMK AO2 SLP237 T01441156
KAIA 102053Z AUTO 30017KT 10SM CLR 16/M16 A3024 RMK AO2 PK WND 29026/2020 SLP243 T01561161 56017
KAIA 101953Z AUTO 29018KT 10SM CLR 16/M14 A3024 RMK AO2 PK WND 30028/1910 SLP242 T01561144
KAIA 101853Z AUTO 31014G28KT 10SM CLR 16/M16 A3027 RMK AO2 PK WND 30028/1849 SLP248 T01561156
KAIA 101753Z AUTO 30013G22KT 10SM CLR 14/M14 A3029 RMK AO2 SLP259 T01441139 10144 21022 58001
KAIA 101653Z AUTO 30012KT 10SM CLR 10/M12 A3031 RMK AO2 SLP272 T01001117
KAIA 101553Z AUTO 29013KT 10SM CLR 05/M11 A3030 RMK AO2 SLP284 T00501111
KAIA 101453Z AUTO 28011KT 10SM CLR 00/M11 A3030 RMK AO2 SLP284 T00001111 50004
KAIA 101353Z AUTO 27011KT 10SM CLR M02/M12 A3030 RMK AO2 SLP285 T10221117
KAIA 101253Z AUTO 27012KT 10SM CLR M02/M12 A3029 RMK AO2 SLP277 T10221117
KAIA 101153Z AUTO 29012KT 10SM CLR M01/M12 A3028 RMK AO2 SLP276 T10111122 10011 21044 55004
KAIA 101053Z AUTO 27015KT 10SM CLR 01/M12 A3028 RMK AO2 SLP260 T00061122
KAIA 100953Z AUTO 27015KT 10SM CLR M01/M12 A3029 RMK AO2 SLP262 T10111117
KAIA 100853Z AUTO 28010KT 10SM CLR M04/M13 A3029 RMK AO2 SLP267 T10391128 53006
KAIA 100753Z AUTO 29010KT 10SM CLR M01/M12 A3028 RMK AO2 SLP258 T10111117
KAIA 100653Z AUTO 29011KT 10SM CLR 01/M11 A3027 RMK AO2 SLP254 T00061111 401391083
KAIA 100553Z AUTO 28014KT 10SM CLR M01/M11 A3027 RMK AO2 SLP258 T10061111 10061 21044 51006
KAIA 100453Z AUTO 27014KT 10SM CLR M01/M11 A3027 RMK AO2 SLP261 T10061111
KAIA 100353Z AUTO 27010KT 10SM CLR M04/M12 A3026 RMK AO2 SLP273 T10391117
KAIA 100253Z AUTO 29013KT 10SM CLR 00/M10 A3025 RMK AO2 SLP273 T00001100 52011
KAIA 100153Z AUTO 29012KT 10SM CLR 02/M11 A3024 RMK AO2 SLP276 T00171111
KAIA 100053Z AUTO 29013KT 10SM CLR 06/M11 A3023 RMK AO2 SLP260 T00561106
KAIA 092353Z AUTO 29010KT 10SM CLR 03/M11 A3022 RMK AO2 SLP258 T00331111 10139 20033 53009
KAIA 092253Z AUTO 28010KT 10SM CLR 09/M13 A3021 RMK AO2 PK WND 31026/2154 SLP248 T00941128
KAIA 092153Z AUTO 31021G28KT 10SM CLR 13/M14 A3019 RMK AO2 PK WND 30030/2121 SLP228 T01331139